PWSweather.com
Personal Weather Stations
Station Observations
DAVIS2016
WorthingGB

WorthingGB

Lat: 50.8130266, Lon: -0.3832443000000012

Elevation: 34.8

Station Type: davis vantage vue 6250

High Low Average
Temperature 64.7°F18.2°C 51.8°F11.0°C 57.9°F14.4°C
Dew Point 61.7°F16.5°C 43.8°F6.6°C 48.0°F8.9°C
Winds 16.0 mph 25.7 kmh 1.0 mph 1.6 kmh 7.0 mph WSW11.3 kmh WSW
Wind Gusts 32.0 mph51.5 kmh 3.0 mph4.8 kmh 18.0 mph29.0 kmh
Humidity 96% 50% 71%
Pressure 30.10 in1019.3 mb 29.50 in999.0 mb -
Precipitation 0.16 in4.1 mm - -
Hour Temp Dew Point Humidity Winds Wind Gusts Pressure Precip Precip Rate Daily Precip Total
12:00 AM 64.7°F18.2°C 61.4°F16.3°C 89% 16.0 mph S25.7 kmh S 28.0 mph45.1 kmh 29.54 in1000.3 mb 0.01 in0.3 mm 0.00 in0.0 mm 0.01 in0.3 mm
12:15 AM 64.7°F18.2°C 61.4°F16.3°C 89% 14.0 mph S22.5 kmh S 32.0 mph51.5 kmh 29.53 in1000.0 mb 0.00 in0.0 mm 0.00 in0.0 mm 0.01 in0.3 mm
12:30 AM 63.9°F17.7°C 61.5°F16.4°C 92% 14.0 mph S22.5 kmh S 30.0 mph48.3 kmh 29.52 in999.7 mb 0.02 in0.5 mm 0.08 in2.0 mm 0.02 in0.5 mm
12:45 AM 63.9°F17.7°C 61.5°F16.4°C 92% 14.0 mph SSW22.5 kmh SSW 29.0 mph46.7 kmh 29.51 in999.3 mb 0.02 in0.5 mm 0.00 in0.0 mm 0.02 in0.5 mm
01:00 AM 63.5°F17.5°C 61.7°F16.5°C 94% 16.0 mph S25.7 kmh S 31.0 mph49.9 kmh 29.50 in999.0 mb 0.06 in1.5 mm 0.05 in1.3 mm 0.06 in1.5 mm
01:15 AM 63.5°F17.5°C 61.7°F16.5°C 94% 15.0 mph S24.1 kmh S 32.0 mph51.5 kmh 29.50 in999.0 mb 0.06 in1.5 mm 0.00 in0.0 mm 0.07 in1.8 mm
01:30 AM 59.1°F15.1°C 58.0°F14.4°C 96% 11.0 mph WSW17.7 kmh WSW 27.0 mph43.5 kmh 29.52 in999.7 mb 0.13 in3.3 mm 0.28 in7.1 mm 0.15 in3.8 mm
01:45 AM 58.6°F14.8°C 57.5°F14.2°C 96% 10.0 mph WSW16.1 kmh WSW 23.0 mph37.0 kmh 29.52 in999.7 mb 0.13 in3.3 mm 0.00 in0.0 mm 0.16 in4.1 mm
02:00 AM 58.6°F14.8°C 57.5°F14.2°C 96% 9.0 mph WSW14.5 kmh WSW 23.0 mph37.0 kmh 29.53 in1000.0 mb 0.09 in2.3 mm 0.00 in0.0 mm 0.16 in4.1 mm
02:15 AM 58.1°F14.5°C 56.7°F13.7°C 95% 10.0 mph WSW16.1 kmh WSW 25.0 mph40.2 kmh 29.54 in1000.3 mb 0.09 in2.3 mm 0.00 in0.0 mm 0.16 in4.1 mm
02:30 AM 57.2°F14.0°C 55.8°F13.2°C 95% 10.0 mph WSW16.1 kmh WSW 27.0 mph43.5 kmh 29.54 in1000.3 mb 0.01 in0.3 mm 0.00 in0.0 mm 0.16 in4.1 mm
02:45 AM 55.3°F12.9°C 53.3°F11.8°C 93% 9.0 mph W14.5 kmh W 24.0 mph38.6 kmh 29.55 in1000.7 mb 0.00 in0.0 mm 0.00 in0.0 mm 0.16 in4.1 mm
03:00 AM 54.8°F12.7°C 53.1°F11.7°C 94% 9.0 mph WSW14.5 kmh WSW 21.0 mph33.8 kmh 29.56 in1001.0 mb 0.00 in0.0 mm 0.00 in0.0 mm 0.16 in4.1 mm
03:15 AM 54.6°F12.6°C 52.6°F11.4°C 93% 6.0 mph WSW9.7 kmh WSW 18.0 mph29.0 kmh 29.57 in1001.4 mb 0.00 in0.0 mm 0.00 in0.0 mm 0.16 in4.1 mm
03:30 AM 55.2°F12.9°C 52.0°F11.1°C 89% 7.0 mph WSW11.3 kmh WSW 18.0 mph29.0 kmh 29.58 in1001.7 mb 0.00 in0.0 mm 0.00 in0.0 mm 0.16 in4.1 mm
03:45 AM 55.3°F12.9°C 50.5°F10.3°C 84% 7.0 mph WSW11.3 kmh WSW 21.0 mph33.8 kmh 29.59 in1002.0 mb 0.00 in0.0 mm 0.00 in0.0 mm 0.16 in4.1 mm
04:00 AM 55.1°F12.8°C 50.4°F10.2°C 84% 6.0 mph WSW9.7 kmh WSW 18.0 mph29.0 kmh 29.59 in1002.0 mb 0.00 in0.0 mm 0.00 in0.0 mm 0.16 in4.1 mm
04:15 AM 55.3°F12.9°C 49.9°F9.9°C 82% 6.0 mph W9.7 kmh W 15.0 mph24.1 kmh 29.61 in1002.7 mb 0.00 in0.0 mm 0.00 in0.0 mm 0.16 in4.1 mm
04:30 AM 55.3°F12.9°C 49.6°F9.8°C 81% 7.0 mph W11.3 kmh W 18.0 mph29.0 kmh 29.62 in1003.0 mb 0.00 in0.0 mm 0.00 in0.0 mm 0.16 in4.1 mm
04:45 AM 55.0°F12.8°C 49.3°F9.6°C 81% 8.0 mph W12.9 kmh W 19.0 mph30.6 kmh 29.63 in1003.4 mb 0.00 in0.0 mm 0.00 in0.0 mm 0.16 in4.1 mm
05:00 AM 54.5°F12.5°C 48.8°F9.3°C 81% 7.0 mph WSW11.3 kmh WSW 17.0 mph27.4 kmh 29.64 in1003.7 mb 0.00 in0.0 mm 0.00 in0.0 mm 0.16 in4.1 mm
05:15 AM 54.1°F12.3°C 48.1°F8.9°C 80% 6.0 mph W9.7 kmh W 16.0 mph25.7 kmh 29.66 in1004.4 mb 0.00 in0.0 mm 0.00 in0.0 mm 0.16 in4.1 mm
05:30 AM 53.6°F12.0°C 47.9°F8.8°C 81% 5.0 mph WSW8.0 kmh WSW 13.0 mph20.9 kmh 29.66 in1004.4 mb 0.00 in0.0 mm 0.00 in0.0 mm 0.16 in4.1 mm
05:45 AM 53.1°F11.7°C 47.4°F8.6°C 81% 5.0 mph WSW8.0 kmh WSW 16.0 mph25.7 kmh 29.68 in1005.1 mb 0.00 in0.0 mm 0.00 in0.0 mm 0.16 in4.1 mm
06:00 AM 52.8°F11.6°C 46.8°F8.2°C 80% 6.0 mph WSW9.7 kmh WSW 15.0 mph24.1 kmh 29.70 in1005.8 mb 0.00 in0.0 mm 0.00 in0.0 mm 0.16 in4.1 mm
06:15 AM 52.2°F11.2°C 46.9°F8.3°C 82% 4.0 mph WSW6.4 kmh WSW 13.0 mph20.9 kmh 29.71 in1006.1 mb 0.00 in0.0 mm 0.00 in0.0 mm 0.16 in4.1 mm
06:30 AM 51.8°F11.0°C 46.2°F7.9°C 81% 4.0 mph WSW6.4 kmh WSW 13.0 mph20.9 kmh 29.72 in1006.4 mb 0.00 in0.0 mm 0.00 in0.0 mm 0.16 in4.1 mm
06:45 AM 52.0°F11.1°C 44.7°F7.1°C 76% 7.0 mph WSW11.3 kmh WSW 15.0 mph24.1 kmh 29.73 in1006.8 mb 0.00 in0.0 mm 0.00 in0.0 mm 0.16 in4.1 mm
07:00 AM 52.3°F11.3°C 44.3°F6.8°C 74% 6.0 mph W9.7 kmh W 14.0 mph22.5 kmh 29.75 in1007.5 mb 0.00 in0.0 mm 0.00 in0.0 mm 0.16 in4.1 mm
07:15 AM 52.8°F11.6°C 44.7°F7.1°C 74% 4.0 mph WSW6.4 kmh WSW 13.0 mph20.9 kmh 29.76 in1007.8 mb 0.00 in0.0 mm 0.00 in0.0 mm 0.16 in4.1 mm
07:30 AM 53.0°F11.7°C 44.6°F7.0°C 73% 6.0 mph WSW9.7 kmh WSW 13.0 mph20.9 kmh 29.77 in1008.1 mb 0.00 in0.0 mm 0.00 in0.0 mm 0.16 in4.1 mm
07:45 AM 53.4°F11.9°C 45.0°F7.2°C 73% 5.0 mph WSW8.0 kmh WSW 16.0 mph25.7 kmh 29.78 in1008.5 mb 0.00 in0.0 mm 0.00 in0.0 mm 0.16 in4.1 mm
08:00 AM 54.0°F12.2°C 45.9°F7.7°C 74% 5.0 mph WSW8.0 kmh WSW 14.0 mph22.5 kmh 29.79 in1008.8 mb 0.00 in0.0 mm 0.00 in0.0 mm 0.16 in4.1 mm
08:15 AM 54.7°F12.6°C 46.9°F8.3°C 75% 7.0 mph WSW11.3 kmh WSW 19.0 mph30.6 kmh 29.79 in1008.8 mb 0.00 in0.0 mm 0.00 in0.0 mm 0.16 in4.1 mm
08:30 AM 55.4°F13.0°C 46.9°F8.3°C 73% 7.0 mph WSW11.3 kmh WSW 18.0 mph29.0 kmh 29.80 in1009.1 mb 0.00 in0.0 mm 0.00 in0.0 mm 0.16 in4.1 mm
08:45 AM 55.9°F13.3°C 46.3°F7.9°C 70% 6.0 mph WSW9.7 kmh WSW 16.0 mph25.7 kmh 29.80 in1009.1 mb 0.00 in0.0 mm 0.00 in0.0 mm 0.16 in4.1 mm
09:00 AM 56.3°F13.5°C 46.3°F7.9°C 69% 7.0 mph W11.3 kmh W 19.0 mph30.6 kmh 29.81 in1009.5 mb 0.00 in0.0 mm 0.00 in0.0 mm 0.16 in4.1 mm
09:15 AM 56.7°F13.7°C 45.9°F7.7°C 67% 8.0 mph WSW12.9 kmh WSW 20.0 mph32.2 kmh 29.81 in1009.5 mb 0.00 in0.0 mm 0.00 in0.0 mm 0.16 in4.1 mm
09:30 AM 57.4°F14.1°C 45.7°F7.6°C 65% 8.0 mph WSW12.9 kmh WSW 20.0 mph32.2 kmh 29.82 in1009.8 mb 0.00 in0.0 mm 0.00 in0.0 mm 0.16 in4.1 mm
09:45 AM 57.9°F14.4°C 45.0°F7.2°C 62% 10.0 mph WSW16.1 kmh WSW 26.0 mph41.8 kmh 29.82 in1009.8 mb 0.00 in0.0 mm 0.00 in0.0 mm 0.16 in4.1 mm
10:00 AM 58.7°F14.8°C 45.7°F7.6°C 62% 8.0 mph WSW12.9 kmh WSW 20.0 mph32.2 kmh 29.82 in1009.8 mb 0.00 in0.0 mm 0.00 in0.0 mm 0.16 in4.1 mm
10:15 AM 59.1°F15.1°C 44.8°F7.1°C 59% 11.0 mph WSW17.7 kmh WSW 24.0 mph38.6 kmh 29.82 in1009.8 mb 0.00 in0.0 mm 0.00 in0.0 mm 0.16 in4.1 mm
10:30 AM 59.6°F15.3°C 44.8°F7.1°C 58% 10.0 mph WSW16.1 kmh WSW 25.0 mph40.2 kmh 29.83 in1010.2 mb 0.00 in0.0 mm 0.00 in0.0 mm 0.16 in4.1 mm
10:45 AM 60.0°F15.6°C 44.7°F7.1°C 57% 10.0 mph WSW16.1 kmh WSW 20.0 mph32.2 kmh 29.84 in1010.5 mb 0.00 in0.0 mm 0.00 in0.0 mm 0.16 in4.1 mm
11:00 AM 60.3°F15.7°C 45.9°F7.7°C 59% 8.0 mph WSW12.9 kmh WSW 19.0 mph30.6 kmh 29.84 in1010.5 mb 0.00 in0.0 mm 0.00 in0.0 mm 0.16 in4.1 mm
11:15 AM 60.5°F15.8°C 46.1°F7.8°C 59% 10.0 mph WSW16.1 kmh WSW 24.0 mph38.6 kmh 29.84 in1010.5 mb 0.00 in0.0 mm 0.00 in0.0 mm 0.16 in4.1 mm
11:30 AM 60.2°F15.7°C 44.9°F7.2°C 57% 12.0 mph WSW19.3 kmh WSW 24.0 mph38.6 kmh 29.85 in1010.8 mb 0.00 in0.0 mm 0.00 in0.0 mm 0.16 in4.1 mm
11:45 AM 61.3°F16.3°C 45.9°F7.7°C 57% 10.0 mph WSW16.1 kmh WSW 27.0 mph43.5 kmh 29.85 in1010.8 mb 0.00 in0.0 mm 0.00 in0.0 mm 0.16 in4.1 mm
12:00 PM 61.3°F16.3°C 45.9°F7.7°C 57% 10.0 mph WSW16.1 kmh WSW 22.0 mph35.4 kmh 29.86 in1011.2 mb 0.00 in0.0 mm 0.00 in0.0 mm 0.16 in4.1 mm
12:15 PM 61.3°F16.3°C 45.0°F7.2°C 55% 11.0 mph WSW17.7 kmh WSW 24.0 mph38.6 kmh 29.86 in1011.2 mb 0.00 in0.0 mm 0.00 in0.0 mm 0.16 in4.1 mm
12:30 PM 61.9°F16.6°C 45.1°F7.3°C 54% 11.0 mph WSW17.7 kmh WSW 27.0 mph43.5 kmh 29.86 in1011.2 mb 0.00 in0.0 mm 0.00 in0.0 mm 0.16 in4.1 mm
12:45 PM 62.3°F16.8°C 44.9°F7.2°C 53% 9.0 mph WSW14.5 kmh WSW 21.0 mph33.8 kmh 29.87 in1011.5 mb 0.00 in0.0 mm 0.00 in0.0 mm 0.16 in4.1 mm
01:00 PM 61.7°F16.5°C 45.8°F7.7°C 56% 11.0 mph WSW17.7 kmh WSW 25.0 mph40.2 kmh 29.87 in1011.5 mb 0.00 in0.0 mm 0.00 in0.0 mm 0.16 in4.1 mm
01:15 PM 62.1°F16.7°C 47.1°F8.4°C 58% 11.0 mph WSW17.7 kmh WSW 26.0 mph41.8 kmh 29.88 in1011.9 mb 0.00 in0.0 mm 0.00 in0.0 mm 0.16 in4.1 mm
01:30 PM 62.5°F16.9°C 46.1°F7.8°C 55% 11.0 mph WSW17.7 kmh WSW 23.0 mph37.0 kmh 29.88 in1011.9 mb 0.00 in0.0 mm 0.00 in0.0 mm 0.16 in4.1 mm
01:45 PM 62.6°F17.0°C 47.6°F8.7°C 58% 11.0 mph WSW17.7 kmh WSW 24.0 mph38.6 kmh 29.89 in1012.2 mb 0.00 in0.0 mm 0.00 in0.0 mm 0.16 in4.1 mm
02:00 PM 62.9°F17.2°C 47.4°F8.6°C 57% 11.0 mph WSW17.7 kmh WSW 26.0 mph41.8 kmh 29.89 in1012.2 mb 0.00 in0.0 mm 0.00 in0.0 mm 0.16 in4.1 mm
02:15 PM 62.8°F17.1°C 46.9°F8.3°C 56% 10.0 mph WSW16.1 kmh WSW 24.0 mph38.6 kmh 29.89 in1012.2 mb 0.00 in0.0 mm 0.00 in0.0 mm 0.16 in4.1 mm
02:30 PM 63.3°F17.4°C 47.8°F8.8°C 57% 11.0 mph WSW17.7 kmh WSW 26.0 mph41.8 kmh 29.89 in1012.2 mb 0.00 in0.0 mm 0.00 in0.0 mm 0.16 in4.1 mm
02:45 PM 61.9°F16.6°C 45.5°F7.5°C 55% 10.0 mph WSW16.1 kmh WSW 26.0 mph41.8 kmh 29.90 in1012.5 mb 0.00 in0.0 mm 0.00 in0.0 mm 0.16 in4.1 mm
03:00 PM 62.2°F16.8°C 44.9°F7.2°C 53% 7.0 mph WSW11.3 kmh WSW 17.0 mph27.4 kmh 29.90 in1012.5 mb 0.00 in0.0 mm 0.00 in0.0 mm 0.16 in4.1 mm
03:15 PM 62.2°F16.8°C 45.3°F7.4°C 54% 7.0 mph WSW11.3 kmh WSW 19.0 mph30.6 kmh 29.91 in1012.9 mb 0.00 in0.0 mm 0.00 in0.0 mm 0.16 in4.1 mm
03:30 PM 62.8°F17.1°C 45.4°F7.4°C 53% 9.0 mph WSW14.5 kmh WSW 21.0 mph33.8 kmh 29.91 in1012.9 mb 0.00 in0.0 mm 0.00 in0.0 mm 0.16 in4.1 mm
03:45 PM 62.7°F17.1°C 43.8°F6.6°C 50% 8.0 mph WSW12.9 kmh WSW 23.0 mph37.0 kmh 29.92 in1013.2 mb 0.00 in0.0 mm 0.00 in0.0 mm 0.16 in4.1 mm
04:00 PM 62.8°F17.1°C 45.4°F7.4°C 53% 7.0 mph WSW11.3 kmh WSW 17.0 mph27.4 kmh 29.92 in1013.2 mb 0.00 in0.0 mm 0.00 in0.0 mm 0.16 in4.1 mm
04:15 PM 62.8°F17.1°C 44.4°F6.9°C 51% 10.0 mph W16.1 kmh W 21.0 mph33.8 kmh 29.93 in1013.5 mb 0.00 in0.0 mm 0.00 in0.0 mm 0.16 in4.1 mm
04:30 PM 62.4°F16.9°C 44.0°F6.7°C 51% 9.0 mph WSW14.5 kmh WSW 21.0 mph33.8 kmh 29.93 in1013.5 mb 0.00 in0.0 mm 0.00 in0.0 mm 0.16 in4.1 mm
04:45 PM 62.2°F16.8°C 44.9°F7.2°C 53% 8.0 mph WSW12.9 kmh WSW 18.0 mph29.0 kmh 29.93 in1013.5 mb 0.00 in0.0 mm 0.00 in0.0 mm 0.16 in4.1 mm
05:00 PM 62.1°F16.7°C 45.2°F7.3°C 54% 6.0 mph WSW9.7 kmh WSW 19.0 mph30.6 kmh 29.94 in1013.9 mb 0.00 in0.0 mm 0.00 in0.0 mm 0.16 in4.1 mm
05:15 PM 61.3°F16.3°C 44.5°F6.9°C 54% 9.0 mph WSW14.5 kmh WSW 22.0 mph35.4 kmh 29.95 in1014.2 mb 0.00 in0.0 mm 0.00 in0.0 mm 0.16 in4.1 mm
05:30 PM 60.8°F16.0°C 45.5°F7.5°C 57% 7.0 mph WSW11.3 kmh WSW 18.0 mph29.0 kmh 29.96 in1014.6 mb 0.00 in0.0 mm 0.00 in0.0 mm 0.16 in4.1 mm
05:45 PM 59.7°F15.4°C 45.8°F7.7°C 60% 7.0 mph WSW11.3 kmh WSW 17.0 mph27.4 kmh 29.96 in1014.6 mb 0.00 in0.0 mm 0.00 in0.0 mm 0.16 in4.1 mm
06:00 PM 59.0°F15.0°C 46.0°F7.8°C 62% 6.0 mph WSW9.7 kmh WSW 15.0 mph24.1 kmh 29.98 in1015.2 mb 0.00 in0.0 mm 0.00 in0.0 mm 0.16 in4.1 mm
06:15 PM 58.4°F14.7°C 45.8°F7.7°C 63% 7.0 mph WSW11.3 kmh WSW 16.0 mph25.7 kmh 29.98 in1015.2 mb 0.00 in0.0 mm 0.00 in0.0 mm 0.16 in4.1 mm
06:30 PM 58.0°F14.4°C 46.3°F7.9°C 65% 5.0 mph W8.0 kmh W 17.0 mph27.4 kmh 30.00 in1015.9 mb 0.00 in0.0 mm 0.00 in0.0 mm 0.16 in4.1 mm
06:45 PM 57.4°F14.1°C 46.5°F8.1°C 67% 4.0 mph WSW6.4 kmh WSW 11.0 mph17.7 kmh 30.01 in1016.3 mb 0.00 in0.0 mm 0.00 in0.0 mm 0.16 in4.1 mm
07:00 PM 57.0°F13.9°C 46.5°F8.1°C 68% 3.0 mph WSW4.8 kmh WSW 10.0 mph16.1 kmh 30.02 in1016.6 mb 0.00 in0.0 mm 0.00 in0.0 mm 0.16 in4.1 mm
07:15 PM 56.5°F13.6°C 46.8°F8.2°C 70% 3.0 mph WSW4.8 kmh WSW 8.0 mph12.9 kmh 30.02 in1016.6 mb 0.00 in0.0 mm 0.00 in0.0 mm 0.16 in4.1 mm
07:30 PM 56.2°F13.4°C 46.2°F7.9°C 69% 3.0 mph WSW4.8 kmh WSW 11.0 mph17.7 kmh 30.04 in1017.3 mb 0.00 in0.0 mm 0.00 in0.0 mm 0.16 in4.1 mm
07:45 PM 56.2°F13.4°C 45.8°F7.7°C 68% 4.0 mph WSW6.4 kmh WSW 11.0 mph17.7 kmh 30.04 in1017.3 mb 0.00 in0.0 mm 0.00 in0.0 mm 0.16 in4.1 mm
08:00 PM 55.9°F13.3°C 45.9°F7.7°C 69% 2.0 mph WSW3.2 kmh WSW 7.0 mph11.3 kmh 30.04 in1017.3 mb 0.00 in0.0 mm 0.00 in0.0 mm 0.16 in4.1 mm
08:15 PM 55.7°F13.2°C 46.1°F7.8°C 70% 3.0 mph W4.8 kmh W 10.0 mph16.1 kmh 30.05 in1017.6 mb 0.00 in0.0 mm 0.00 in0.0 mm 0.16 in4.1 mm
08:30 PM 55.3°F12.9°C 46.1°F7.8°C 71% 1.0 mph WSW1.6 kmh WSW 6.0 mph9.7 kmh 30.05 in1017.6 mb 0.00 in0.0 mm 0.00 in0.0 mm 0.16 in4.1 mm
08:45 PM 55.3°F12.9°C 46.4°F8.0°C 72% 2.0 mph WSW3.2 kmh WSW 7.0 mph11.3 kmh 30.06 in1017.9 mb 0.00 in0.0 mm 0.00 in0.0 mm 0.16 in4.1 mm
09:00 PM 55.3°F12.9°C 46.1°F7.8°C 71% 2.0 mph WSW3.2 kmh WSW 7.0 mph11.3 kmh 30.06 in1017.9 mb 0.00 in0.0 mm 0.00 in0.0 mm 0.16 in4.1 mm
09:15 PM 55.3°F12.9°C 46.1°F7.8°C 71% 3.0 mph W4.8 kmh W 7.0 mph11.3 kmh 30.07 in1018.3 mb 0.00 in0.0 mm 0.00 in0.0 mm 0.16 in4.1 mm
09:30 PM 55.1°F12.8°C 45.9°F7.7°C 71% 2.0 mph WSW3.2 kmh WSW 7.0 mph11.3 kmh 30.08 in1018.6 mb 0.00 in0.0 mm 0.00 in0.0 mm 0.16 in4.1 mm
09:45 PM 55.0°F12.8°C 45.8°F7.7°C 71% 3.0 mph WSW4.8 kmh WSW 11.0 mph17.7 kmh 30.08 in1018.6 mb 0.00 in0.0 mm 0.00 in0.0 mm 0.16 in4.1 mm
10:00 PM 54.9°F12.7°C 46.0°F7.8°C 72% 3.0 mph W4.8 kmh W 9.0 mph14.5 kmh 30.08 in1018.6 mb 0.00 in0.0 mm 0.00 in0.0 mm 0.16 in4.1 mm
10:15 PM 54.5°F12.5°C 46.0°F7.8°C 73% 1.0 mph W1.6 kmh W 5.0 mph8.0 kmh 30.08 in1018.6 mb 0.00 in0.0 mm 0.00 in0.0 mm 0.16 in4.1 mm
10:30 PM 54.1°F12.3°C 46.3°F7.9°C 75% 1.0 mph WSW1.6 kmh WSW 4.0 mph6.4 kmh 30.09 in1019.0 mb 0.00 in0.0 mm 0.00 in0.0 mm 0.16 in4.1 mm
10:45 PM 54.1°F12.3°C 46.3°F7.9°C 75% 2.0 mph WSW3.2 kmh WSW 4.0 mph6.4 kmh 30.10 in1019.3 mb 0.00 in0.0 mm 0.00 in0.0 mm 0.16 in4.1 mm
11:00 PM 53.8°F12.1°C 46.4°F8.0°C 76% 1.0 mph WSW1.6 kmh WSW 4.0 mph6.4 kmh 30.09 in1019.0 mb 0.00 in0.0 mm 0.00 in0.0 mm 0.14 in3.6 mm
11:15 PM 53.5°F11.9°C 46.5°F8.1°C 77% 1.0 mph WSW1.6 kmh WSW 4.0 mph6.4 kmh 30.10 in1019.3 mb 0.00 in0.0 mm 0.00 in0.0 mm 0.14 in3.6 mm
11:30 PM 53.3°F11.8°C 46.6°F8.1°C 78% 1.0 mph WSW1.6 kmh WSW 4.0 mph6.4 kmh 30.10 in1019.3 mb 0.00 in0.0 mm 0.00 in0.0 mm 0.14 in3.6 mm
11:45 PM 53.1°F11.7°C 46.4°F8.0°C 78% 1.0 mph WSW1.6 kmh WSW 3.0 mph4.8 kmh 30.09 in1019.0 mb 0.00 in0.0 mm 0.00 in0.0 mm 0.14 in3.6 mm